KGYR

Phoenix Goodyear Airport

Goodyear, Arizona, USA
METAR KGYR 230347Z 00000KT 10SM FEW060 BKN200 BKN250 22/10 A2985 RMK LAST
Observed Flight Rules
Oct-23 @ 03:47 UTC (8 hours ago) Visual Flight Rules
Visibility Clouds
10 miles
  • Few at 6,000' AGL
  • Broken at 20,000' AGL
  • Broken at 25,000' AGL
Temperatures Readings
Current 22°C / 72°F
Dewpoint 10°C / 50°F
Humidity 47%
Altimeter 29.85" Hg
Pressure 1011 hPa
Elevation 295
METAR KGYR 230347Z 00000KT 10SM FEW060 BKN200 BKN250 22/10 A2985 RMK LAST
Observed Flight Rules
Oct-23 @ 03:47 UTC
(8 hours ago)
VFR
Clouds
  • Few at 6,000' AGL
  • Broken at 20,000' AGL
  • Broken at 25,000' AGL
Temperature Dewpoint
22°C / 72°F 10°C / 50°F
Humidity Altimeter Pressure
47% 29.85" Hg 1011 hPa